Time,TemperatureF,DewpointF,PressureIn,WindDirection,WindDirectionDegrees,WindSpeedMPH,WindSpeedGustMPH,Humidity,HourlyPrecipIn,Conditions,Clouds,dailyrainin,SoftwareType,DateUTC
2013-05-17 00:00:00,69.3,63.9,30.05,SSE,151,0.0,0.0,83,0.00,RA,,0.00,WeatherDisplay:10.37,2013-05-17 04:00:00,
2013-05-17 00:05:00,69.1,63.7,30.05,SSE,151,0.0,0.0,83,0.00,RA,,0.00,WeatherDisplay:10.37,2013-05-17 04:05:00,
2013-05-17 00:10:00,68.9,63.9,30.05,SSE,151,0.0,1.0,84,0.00,CLR,,0.00,WeatherDisplay:10.37,2013-05-17 04:10:00,
2013-05-17 00:15:00,68.8,64.1,30.05,SSE,151,0.0,0.0,85,0.00,CLR,,0.00,WeatherDisplay:10.37,2013-05-17 04:15:00,
2013-05-17 00:20:00,68.7,64.0,30.05,SSE,151,0.0,0.0,85,0.00,CLR,,0.00,WeatherDisplay:10.37,2013-05-17 04:20:00,
2013-05-17 00:25:00,68.6,63.9,30.05,SSE,151,0.0,0.0,85,0.00,CLR,,0.00,WeatherDisplay:10.37,2013-05-17 04:25:00,
2013-05-17 00:30:00,68.7,64.0,30.04,SSE,151,0.0,0.0,85,0.00,CLR,,0.00,WeatherDisplay:10.37,2013-05-17 04:30:00,
2013-05-17 00:35:00,68.9,64.2,30.04,SSE,151,0.0,0.0,85,0.00,CLR,,0.00,WeatherDisplay:10.37,2013-05-17 04:35:00,
2013-05-17 00:40:00,68.9,63.9,30.04,SSE,151,0.0,0.0,84,0.00,CLR,,0.00,WeatherDisplay:10.37,2013-05-17 04:40:00,
2013-05-17 00:45:00,68.8,64.1,30.04,SSE,151,0.0,0.0,85,0.00,CLR,,0.00,WeatherDisplay:10.37,2013-05-17 04:45:00,
2013-05-17 00:50:00,68.8,64.1,30.03,SSE,151,0.0,1.0,85,0.00,CLR,,0.00,WeatherDisplay:10.37,2013-05-17 04:50:00,
2013-05-17 00:55:00,68.7,64.0,30.03,SSE,151,0.0,1.0,85,0.00,CLR,,0.00,WeatherDisplay:10.37,2013-05-17 04:55:00,
2013-05-17 01:00:00,68.6,63.9,30.03,SSE,151,0.0,1.0,85,0.00,CLR,,0.00,WeatherDisplay:10.37,2013-05-17 05:00:00,
2013-05-17 01:05:00,68.6,63.9,30.03,SSE,151,0.0,3.0,85,0.00,CLR,,0.00,WeatherDisplay:10.37,2013-05-17 05:05:00,
2013-05-17 01:10:00,68.6,63.9,30.03,SSE,151,0.0,2.0,85,0.00,CLR,,0.00,WeatherDisplay:10.37,2013-05-17 05:10:00,
2013-05-17 01:15:00,68.5,63.8,30.03,SSE,151,0.0,1.0,85,0.00,CLR,,0.00,WeatherDisplay:10.37,2013-05-17 05:15:00,
2013-05-17 01:20:00,68.5,64.1,30.03,SSE,151,0.0,1.0,86,0.00,CLR,,0.00,WeatherDisplay:10.37,2013-05-17 05:20:00,
2013-05-17 01:25:00,68.5,64.1,30.03,SSE,151,0.0,0.0,86,0.00,CLR,,0.00,WeatherDisplay:10.37,2013-05-17 05:25:00,
2013-05-17 01:30:00,68.4,63.7,30.02,SSE,151,0.0,0.0,85,0.00,CLR,,0.00,WeatherDisplay:10.37,2013-05-17 05:30:00,
2013-05-17 01:35:00,68.4,63.7,30.03,SSE,151,0.0,0.0,85,0.00,CLR,,0.00,WeatherDisplay:10.37,2013-05-17 05:35:00,
2013-05-17 01:40:00,68.3,63.6,30.03,SSE,151,0.0,0.0,85,0.00,CLR,,0.00,WeatherDisplay:10.37,2013-05-17 05:40:00,
2013-05-17 01:45:00,68.1,63.7,30.03,SSE,151,0.0,0.0,86,0.00,CLR,,0.00,WeatherDisplay:10.37,2013-05-17 05:45:00,
2013-05-17 01:50:00,67.8,63.5,30.03,SSE,151,0.0,0.0,86,0.00,CLR,,0.00,WeatherDisplay:10.37,2013-05-17 05:50:00,
2013-05-17 01:55:00,67.6,63.6,30.03,SSE,151,0.0,0.0,87,0.00,CLR,,0.00,WeatherDisplay:10.37,2013-05-17 05:55:00,
2013-05-17 02:00:00,67.4,63.4,30.02,SSE,151,0.0,0.0,87,0.00,CLR,,0.00,WeatherDisplay:10.37,2013-05-17 06:00:00,
2013-05-17 02:05:00,67.2,63.2,30.02,SSE,151,0.0,0.0,87,0.00,CLR,,0.00,WeatherDisplay:10.37,2013-05-17 06:05:00,
2013-05-17 02:10:00,67.1,63.4,30.03,SSE,151,0.0,0.0,88,0.00,CLR,,0.00,WeatherDisplay:10.37,2013-05-17 06:10:00,
2013-05-17 02:15:00,66.8,63.1,30.02,SSE,151,0.0,0.0,88,0.00,CLR,,0.00,WeatherDisplay:10.37,2013-05-17 06:15:00,
2013-05-17 02:20:00,66.6,62.9,30.02,SSE,151,0.0,0.0,88,0.00,CLR,,0.00,WeatherDisplay:10.37,2013-05-17 06:20:00,
2013-05-17 02:25:00,66.5,62.8,30.02,SSE,151,0.0,0.0,88,0.00,CLR,,0.00,WeatherDisplay:10.37,2013-05-17 06:25:00,
2013-05-17 02:30:00,66.6,63.2,30.02,SSE,151,0.0,1.0,89,0.00,CLR,,0.00,WeatherDisplay:10.37,2013-05-17 06:30:00,
2013-05-17 02:35:00,66.6,63.3,30.01,SSE,151,0.0,0.0,89,0.00,CLR,,0.00,WeatherDisplay:10.37,2013-05-17 06:35:00,
2013-05-17 02:45:00,66.5,63.2,30.01,SSE,151,0.0,0.0,89,0.00,CLR,,0.00,WeatherDisplay:10.37,2013-05-17 06:45:00,
2013-05-17 02:50:00,66.3,62.9,30.01,SSE,151,0.0,1.0,89,0.00,CLR,,0.00,WeatherDisplay:10.37,2013-05-17 06:50:00,
2013-05-17 02:55:00,66.1,62.7,30.01,SSE,151,0.0,0.0,89,0.00,CLR,,0.00,WeatherDisplay:10.37,2013-05-17 06:55:00,
2013-05-17 03:00:00,65.9,62.5,30.01,SSE,151,0.0,0.0,89,0.00,CLR,,0.00,WeatherDisplay:10.37,2013-05-17 07:00:00,
2013-05-17 03:10:00,65.4,62.1,30.01,SSE,151,0.0,0.0,89,0.00,CLR,,0.00,WeatherDisplay:10.37,2013-05-17 07:10:00,
2013-05-17 03:20:00,64.9,61.9,30.01,SSE,151,0.0,0.0,90,0.00,CLR,,0.00,WeatherDisplay:10.37,2013-05-17 07:20:00,
2013-05-17 03:30:00,64.6,61.9,30.01,SSE,151,0.0,0.0,91,0.00,CLR,,0.00,WeatherDisplay:10.37,2013-05-17 07:30:00,
2013-05-17 03:40:00,64.3,61.9,30.01,SSE,151,0.0,0.0,92,0.00,CLR,,0.00,WeatherDisplay:10.37,2013-05-17 07:40:00,
2013-05-17 03:45:00,64.1,61.4,30.01,SSE,151,0.0,0.0,91,0.00,CLR,,0.00,WeatherDisplay:10.37,2013-05-17 07:45:00,
2013-05-17 03:50:00,63.9,61.2,30.01,SSE,151,0.0,0.0,91,0.00,CLR,,0.00,WeatherDisplay:10.37,2013-05-17 07:50:00,
2013-05-17 03:55:00,63.6,60.9,30.01,SSE,151,0.0,0.0,91,0.00,CLR,,0.00,WeatherDisplay:10.37,2013-05-17 07:55:00,
2013-05-17 04:00:00,63.4,60.7,30.01,SSE,151,0.0,0.0,91,0.00,CLR,,0.00,WeatherDisplay:10.37,2013-05-17 08:00:00,
2013-05-17 04:05:00,63.3,60.9,30.01,SSE,151,0.0,0.0,92,0.00,CLR,,0.00,WeatherDisplay:10.37,2013-05-17 08:05:00,
2013-05-17 04:10:00,63.1,60.8,30.01,SSE,151,0.0,0.0,92,0.00,CLR,,0.00,WeatherDisplay:10.37,2013-05-17 08:10:00,
2013-05-17 04:15:00,63.4,61.3,30.01,SSE,151,0.0,0.0,93,0.00,CLR,,0.00,WeatherDisplay:10.37,2013-05-17 08:15:00,
2013-05-17 04:20:00,63.3,61.5,30.02,SSE,151,0.0,0.0,94,0.00,CLR,,0.00,WeatherDisplay:10.37,2013-05-17 08:20:00,
2013-05-17 04:25:00,63.2,61.1,30.02,SSE,151,0.0,0.0,93,0.00,CLR,,0.00,WeatherDisplay:10.37,2013-05-17 08:25:00,
2013-05-17 04:30:00,63.0,60.9,30.02,SSE,151,0.0,0.0,93,0.00,CLR,,0.00,WeatherDisplay:10.37,2013-05-17 08:30:00,
2013-05-17 04:35:00,62.9,61.1,30.02,SSE,151,0.0,0.0,94,0.00,CLR,,0.00,WeatherDisplay:10.37,2013-05-17 08:35:00,
2013-05-17 04:40:00,62.8,61.0,30.02,SSE,151,0.0,0.0,94,0.00,CLR,,0.00,WeatherDisplay:10.37,2013-05-17 08:40:00,
2013-05-17 04:45:00,62.7,60.9,30.02,SSE,151,0.0,0.0,94,0.00,CLR,,0.00,WeatherDisplay:10.37,2013-05-17 08:45:00,
2013-05-17 04:50:00,62.6,60.8,30.03,SSE,151,0.0,0.0,94,0.00,CLR,,0.00,WeatherDisplay:10.37,2013-05-17 08:50:00,
2013-05-17 04:55:00,62.5,60.7,30.02,SSE,151,0.0,0.0,94,0.00,CLR,,0.00,WeatherDisplay:10.37,2013-05-17 08:55:00,
2013-05-17 05:00:00,62.4,60.7,30.02,SSE,151,0.0,0.0,94,0.00,CLR,,0.00,WeatherDisplay:10.37,2013-05-17 09:00:00,
2013-05-17 05:05:00,62.3,60.6,30.02,SSE,151,0.0,0.0,94,0.00,CLR,,0.00,WeatherDisplay:10.37,2013-05-17 09:05:00,
2013-05-17 05:10:00,62.1,60.4,30.02,SSE,151,0.0,0.0,94,0.00,CLR,,0.00,WeatherDisplay:10.37,2013-05-17 09:10:00,
2013-05-17 05:15:00,61.9,60.2,30.02,SSE,151,0.0,0.0,94,0.00,CLR,,0.00,WeatherDisplay:10.37,2013-05-17 09:15:00,
2013-05-17 05:20:00,61.7,60.0,30.03,SSE,151,0.0,0.0,94,0.00,CLR,,0.00,WeatherDisplay:10.37,2013-05-17 09:20:00,
2013-05-17 05:25:00,61.6,59.9,30.03,SSE,151,0.0,0.0,94,0.00,CLR,,0.00,WeatherDisplay:10.37,2013-05-17 09:25:00,
2013-05-17 05:30:00,61.6,60.2,30.03,SSE,151,0.0,0.0,95,0.00,CLR,,0.00,WeatherDisplay:10.37,2013-05-17 09:30:00,
2013-05-17 05:35:00,61.6,60.2,30.03,SSE,151,0.0,0.0,95,0.00,CLR,,0.00,WeatherDisplay:10.37,2013-05-17 09:35:00,
2013-05-17 05:40:00,61.6,60.1,30.03,SSE,151,0.0,0.0,95,0.00,CLR,,0.00,WeatherDisplay:10.37,2013-05-17 09:40:00,
2013-05-17 05:45:00,61.4,60.0,30.03,SSE,151,0.0,0.0,95,0.00,CLR,,0.00,WeatherDisplay:10.37,2013-05-17 09:45:00,
2013-05-17 05:50:00,61.3,59.9,30.03,SSE,151,0.0,0.0,95,0.00,CLR,,0.00,WeatherDisplay:10.37,2013-05-17 09:50:00,
2013-05-17 05:55:00,61.2,59.8,30.03,SSE,151,0.0,0.0,95,0.00,CLR,,0.00,WeatherDisplay:10.37,2013-05-17 09:55:00,
2013-05-17 06:00:00,61.1,59.4,30.03,SSE,151,0.0,0.0,94,0.00,CLR,,0.00,WeatherDisplay:10.37,2013-05-17 10:00:00,
2013-05-17 06:05:00,61.0,59.6,30.03,SSE,151,0.0,0.0,95,0.00,CLR,,0.00,WeatherDisplay:10.37,2013-05-17 10:05:00,
2013-05-17 06:10:00,61.0,59.6,30.04,SSE,151,0.0,0.0,95,0.00,CLR,,0.00,WeatherDisplay:10.37,2013-05-17 10:10:00,
2013-05-17 06:15:00,61.1,59.7,30.04,SSE,151,0.0,0.0,95,0.00,CLR,,0.00,WeatherDisplay:10.37,2013-05-17 10:15:00,
2013-05-17 06:20:00,61.2,60.1,30.04,SSE,151,0.0,0.0,96,0.00,CLR,,0.00,WeatherDisplay:10.37,2013-05-17 10:20:00,
2013-05-17 06:25:00,61.3,60.2,30.04,SSE,151,0.0,0.0,96,0.00,CLR,,0.00,WeatherDisplay:10.37,2013-05-17 10:25:00,
2013-05-17 06:35:00,61.2,60.1,30.04,SSE,151,0.0,0.0,96,0.00,CLR,,0.00,WeatherDisplay:10.37,2013-05-17 10:35:00,
2013-05-17 06:40:00,61.0,59.6,30.04,SSE,151,0.0,0.0,95,0.00,CLR,,0.00,WeatherDisplay:10.37,2013-05-17 10:40:00,
2013-05-17 06:45:00,60.8,59.4,30.04,SSE,151,0.0,0.0,95,0.00,CLR,,0.00,WeatherDisplay:10.37,2013-05-17 10:45:00,
2013-05-17 06:50:00,60.7,59.3,30.04,SSE,151,0.0,0.0,95,0.00,CLR,,0.00,WeatherDisplay:10.37,2013-05-17 10:50:00,
2013-05-17 06:55:00,60.8,59.7,30.04,SSE,152,0.0,0.0,96,0.00,CLR,,0.00,WeatherDisplay:10.37,2013-05-17 10:55:00,
2013-05-17 07:00:00,60.9,59.7,30.05,SSE,151,0.0,0.0,96,0.00,CLR,,0.00,WeatherDisplay:10.37,2013-05-17 11:00:00,
2013-05-17 07:05:00,61.1,59.9,30.05,SSE,147,0.0,0.0,96,0.00,CLR,,0.00,WeatherDisplay:10.37,2013-05-17 11:05:00,
2013-05-17 07:10:00,61.3,60.2,30.05,SE,143,0.0,0.0,96,0.00,CLR,,0.00,WeatherDisplay:10.37,2013-05-17 11:10:00,
2013-05-17 07:15:00,61.6,60.4,30.05,SE,141,0.0,0.0,96,0.00,CLR,,0.00,WeatherDisplay:10.37,2013-05-17 11:15:00,
2013-05-17 07:20:00,62.0,61.1,30.06,SE,141,0.0,1.0,97,0.00,CLR,,0.00,WeatherDisplay:10.37,2013-05-17 11:20:00,
2013-05-17 07:25:00,62.2,61.3,30.06,SE,141,0.0,0.0,97,0.00,CLR,,0.00,WeatherDisplay:10.37,2013-05-17 11:25:00,
2013-05-17 07:30:00,62.5,61.6,30.06,SE,141,0.0,0.0,97,0.00,CLR,,0.00,WeatherDisplay:10.37,2013-05-17 11:30:00,
2013-05-17 07:35:00,62.9,62.0,30.06,SE,141,0.0,0.0,97,0.00,CLR,,0.00,WeatherDisplay:10.37,2013-05-17 11:35:00,
2013-05-17 07:40:00,63.5,62.6,30.06,SE,141,0.0,0.0,97,0.00,CLR,,0.00,WeatherDisplay:10.37,2013-05-17 11:40:00,
2013-05-17 07:45:00,63.9,63.0,30.06,SE,141,0.0,0.0,97,0.00,CLR,,0.00,WeatherDisplay:10.37,2013-05-17 11:45:00,
2013-05-17 07:50:00,64.1,63.2,30.06,SE,141,0.0,0.0,97,0.00,CLR,,0.00,WeatherDisplay:10.37,2013-05-17 11:50:00,
2013-05-17 07:55:00,64.5,63.6,30.06,SE,141,0.0,0.0,97,0.00,CLR,,0.00,WeatherDisplay:10.37,2013-05-17 11:55:00,
2013-05-17 08:00:00,65.1,64.3,30.06,SE,140,0.0,0.0,97,0.00,CLR,,0.00,WeatherDisplay:10.37,2013-05-17 12:00:00,
2013-05-17 08:05:00,65.8,64.9,30.06,South,180,0.0,0.0,97,0.00,CLR,,0.00,WeatherDisplay:10.37,2013-05-17 12:05:00,
2013-05-17 08:10:00,66.4,65.5,30.06,SW,220,0.0,0.0,97,0.00,CLR,,0.00,WeatherDisplay:10.37,2013-05-17 12:10:00,
2013-05-17 08:15:00,67.0,65.8,30.06,SW,220,0.0,0.0,96,0.00,CLR,,0.00,WeatherDisplay:10.37,2013-05-17 12:15:00,
2013-05-17 08:20:00,67.7,65.9,30.06,SW,220,0.0,0.0,94,0.00,CLR,,0.00,WeatherDisplay:10.37,2013-05-17 12:20:00,
2013-05-17 08:30:00,69.0,66.3,30.06,SSW,203,0.0,0.0,91,0.00,CLR,,0.00,WeatherDisplay:10.37,2013-05-17 12:30:00,
2013-05-17 08:35:00,69.7,66.3,30.06,SE,135,0.0,0.0,89,0.00,CLR,,0.00,WeatherDisplay:10.37,2013-05-17 12:35:00,
2013-05-17 08:45:00,71.3,67.2,30.06,ESE,111,0.0,0.0,87,0.00,CLR,,0.00,WeatherDisplay:10.37,2013-05-17 12:45:00,
2013-05-17 08:50:00,72.0,67.2,30.06,SE,125,0.0,1.0,85,0.00,CLR,,0.00,WeatherDisplay:10.37,2013-05-17 12:50:00,
2013-05-17 08:55:00,72.7,67.2,30.06,South,189,2.0,5.0,83,0.00,CLR,,0.00,WeatherDisplay:10.37,2013-05-17 12:55:00,
2013-05-17 09:00:00,73.4,67.6,30.07,SW,215,0.0,2.0,82,0.00,CLR,,0.00,WeatherDisplay:10.37,2013-05-17 13:00:00,
2013-05-17 09:05:00,74.2,68.0,30.07,SSW,200,0.0,1.0,81,0.00,CLR,,0.00,WeatherDisplay:10.37,2013-05-17 13:05:00,
2013-05-17 09:10:00,75.0,68.1,30.07,SSE,163,0.0,1.0,79,0.00,CLR,,0.00,WeatherDisplay:10.37,2013-05-17 13:10:00,
2013-05-17 09:15:00,75.8,68.8,30.07,SSE,162,0.0,2.0,79,0.00,CLR,,0.00,WeatherDisplay:10.37,2013-05-17 13:15:00,
2013-05-17 09:20:00,76.4,68.7,30.07,SSE,160,0.0,2.0,77,0.00,CLR,,0.00,WeatherDisplay:10.37,2013-05-17 13:20:00,
2013-05-17 09:25:00,77.0,68.5,30.07,SSE,163,0.0,2.0,75,0.00,CLR,,0.00,WeatherDisplay:10.37,2013-05-17 13:25:00,
2013-05-17 09:30:00,77.6,68.7,30.07,SSE,156,0.0,1.0,74,0.00,CLR,,0.00,WeatherDisplay:10.37,2013-05-17 13:30:00,
2013-05-17 09:35:00,78.2,68.5,30.07,South,173,0.0,2.0,72,0.00,CLR,,0.00,WeatherDisplay:10.37,2013-05-17 13:35:00,
2013-05-17 09:40:00,78.7,68.1,30.08,ESE,114,0.0,4.0,70,0.00,CLR,,0.00,WeatherDisplay:10.37,2013-05-17 13:40:00,
2013-05-17 09:45:00,79.0,68.8,30.07,East,90,0.0,1.0,71,0.00,CLR,,0.00,WeatherDisplay:10.37,2013-05-17 13:45:00,
2013-05-17 09:50:00,79.5,68.9,30.07,East,94,0.0,1.0,70,0.00,CLR,,0.00,WeatherDisplay:10.37,2013-05-17 13:50:00,
2013-05-17 10:00:00,80.4,68.5,30.07,SSE,147,3.0,6.0,67,0.00,CLR,,0.00,WeatherDisplay:10.37,2013-05-17 14:00:00,
2013-05-17 10:05:00,80.5,68.1,30.07,SSE,159,1.0,5.0,66,0.00,CLR,,0.00,WeatherDisplay:10.37,2013-05-17 14:05:00,
2013-05-17 10:15:00,80.6,67.7,30.07,South,183,2.0,7.0,65,0.00,CLR,,0.00,WeatherDisplay:10.37,2013-05-17 14:15:00,
2013-05-17 10:20:00,80.4,68.0,30.07,South,182,0.0,4.0,66,0.00,CLR,,0.00,WeatherDisplay:10.37,2013-05-17 14:20:00,
2013-05-17 10:25:00,80.5,67.6,30.08,South,181,0.0,4.0,65,0.00,CLR,,0.00,WeatherDisplay:10.37,2013-05-17 14:25:00,
2013-05-17 10:30:00,80.9,68.0,30.08,SSW,197,2.0,4.0,65,0.00,CLR,,0.00,WeatherDisplay:10.37,2013-05-17 14:30:00,
2013-05-17 10:35:00,80.8,67.1,30.08,SSW,210,1.0,3.0,63,0.00,CLR,,0.00,WeatherDisplay:10.37,2013-05-17 14:35:00,
2013-05-17 10:45:00,81.1,67.8,30.08,SSW,193,0.0,1.0,64,0.00,CLR,,0.00,WeatherDisplay:10.37,2013-05-17 14:45:00,
2013-05-17 10:50:00,81.5,67.7,30.08,SSW,193,0.0,1.0,63,0.00,CLR,,0.00,WeatherDisplay:10.37,2013-05-17 14:50:00,
2013-05-17 10:55:00,82.1,66.4,30.08,South,183,5.0,7.0,59,0.00,CLR,,0.00,WeatherDisplay:10.37,2013-05-17 14:55:00,
2013-05-17 11:00:00,82.5,66.2,30.08,South,189,1.0,5.0,58,0.00,CLR,,0.00,WeatherDisplay:10.37,2013-05-17 15:00:00,
2013-05-17 11:05:00,82.6,66.8,30.08,SSW,204,1.0,2.0,59,0.00,CLR,,0.00,WeatherDisplay:10.37,2013-05-17 15:05:00,
2013-05-17 11:10:00,83.0,67.2,30.08,SSW,207,1.0,5.0,59,0.00,CLR,,0.00,WeatherDisplay:10.37,2013-05-17 15:10:00,
2013-05-17 11:15:00,83.9,67.5,30.08,SSE,167,0.0,6.0,58,0.00,CLR,,0.00,WeatherDisplay:10.37,2013-05-17 15:15:00,
2013-05-17 11:20:00,84.5,67.6,30.08,SSE,165,2.0,6.0,57,0.00,CLR,,0.00,WeatherDisplay:10.37,2013-05-17 15:20:00,
2013-05-17 11:25:00,84.1,67.2,30.08,SSE,168,0.0,2.0,57,0.00,CLR,,0.00,WeatherDisplay:10.37,2013-05-17 15:25:00,
2013-05-17 11:30:00,83.7,66.8,30.08,SSE,168,0.0,1.0,57,0.00,CLR,,0.00,WeatherDisplay:10.37,2013-05-17 15:30:00,
2013-05-17 11:35:00,83.6,67.3,30.08,SSE,167,0.0,1.0,58,0.00,CLR,,0.00,WeatherDisplay:10.37,2013-05-17 15:35:00,
2013-05-17 11:40:00,83.8,67.4,30.08,SSE,161,0.0,2.0,58,0.00,CLR,,0.00,WeatherDisplay:10.37,2013-05-17 15:40:00,
2013-05-17 11:45:00,84.0,67.7,30.08,SSE,157,0.0,1.0,58,0.00,CLR,,0.00,WeatherDisplay:10.37,2013-05-17 15:45:00,
2013-05-17 11:50:00,84.4,67.5,30.07,South,173,0.0,4.0,57,0.00,CLR,,0.00,WeatherDisplay:10.37,2013-05-17 15:50:00,
2013-05-17 11:55:00,85.4,68.4,30.07,SE,142,0.0,2.0,57,0.00,CLR,,0.00,WeatherDisplay:10.37,2013-05-17 15:55:00,
2013-05-17 12:00:00,85.5,67.5,30.07,East,83,0.0,2.0,55,0.00,CLR,,0.00,WeatherDisplay:10.37,2013-05-17 16:00:00,
2013-05-17 12:05:00,85.1,67.7,30.07,NNE,20,0.0,1.0,56,0.00,CLR,,0.00,WeatherDisplay:10.37,2013-05-17 16:05:00,
2013-05-17 12:10:00,84.5,66.5,30.07,North,11,0.0,0.0,55,0.00,CLR,,0.00,WeatherDisplay:10.37,2013-05-17 16:10:00,
2013-05-17 12:15:00,83.9,67.5,30.07,NE,48,0.0,1.0,58,0.00,CLR,,0.00,WeatherDisplay:10.37,2013-05-17 16:15:00,
2013-05-17 12:25:00,85.1,66.5,30.07,East,88,0.0,1.0,54,0.00,CLR,,0.00,WeatherDisplay:10.37,2013-05-17 16:25:00,